Time;durP1;ratioP1;P1;durP2;ratioP2;P2;SDS_P1;SDS_P2;PMS_P1;PMS_P2;Temp;Humidity;BMP_temperature;BMP_pressure;BME280_temperature;BME280_humidity;BME280_pressure;Samples;Min_cycle;Max_cycle;Signal;HPM_P1;HPM_P2
2021/04/26 00:00:17;;;;;;;4.10;3.13;;;;;;;12.41;33.17;95234.78;6794959;28;20218;-76
2021/04/26 00:03:38;;;;;;;5.43;3.10;;;;;;;12.35;33.29;95231.88;6844283;28;20211;-75
2021/04/26 00:07:00;;;;;;;4.63;3.07;;;;;;;12.29;33.40;95216.47;6812324;28;20219;-75
2021/04/26 00:10:21;;;;;;;5.53;2.80;;;;;;;12.23;32.86;95228.53;6827942;28;20657;-75
2021/04/26 00:13:42;;;;;;;5.67;2.90;;;;;;;12.19;33.36;95216.50;6819252;28;20214;-75
2021/04/26 00:17:02;;;;;;;5.97;3.53;;;;;;;12.17;33.49;95220.31;6824994;28;20593;-76
2021/04/26 00:20:27;;;;;;;4.73;3.30;;;;;;;12.13;33.34;95213.59;6822531;28;20301;-75
2021/04/26 00:23:48;;;;;;;4.47;2.93;;;;;;;12.12;33.57;95215.41;6804796;28;20585;-75
2021/04/26 00:27:08;;;;;;;5.67;3.17;;;;;;;12.10;33.21;95216.56;6828720;28;20742;-75
2021/04/26 00:30:30;;;;;;;4.10;3.10;;;;;;;12.07;32.97;95212.38;6827248;28;20236;-75
2021/04/26 00:33:50;;;;;;;6.10;2.90;;;;;;;12.04;33.28;95210.00;6824680;28;20214;-75
2021/04/26 00:37:11;;;;;;;6.07;2.80;;;;;;;12.01;33.25;95203.16;6811667;28;20226;-74
2021/04/26 00:40:31;;;;;;;5.93;2.90;;;;;;;11.98;33.02;95213.22;6811978;28;20234;-75
2021/04/26 00:43:54;;;;;;;4.60;3.07;;;;;;;11.97;33.76;95216.91;6817041;28;20234;-75
2021/04/26 00:47:17;;;;;;;5.93;3.23;;;;;;;12.00;33.97;95204.13;6815864;28;20589;-74
2021/04/26 00:50:39;;;;;;;5.07;2.90;;;;;;;11.95;33.91;95206.41;6827776;28;20226;-75
2021/04/26 00:54:00;;;;;;;3.93;3.23;;;;;;;11.96;33.79;95204.56;6828520;28;20274;-75
2021/04/26 00:57:20;;;;;;;3.03;2.70;;;;;;;11.98;34.16;95205.25;6806926;28;20317;-75
2021/04/26 01:00:41;;;;;;;5.23;2.90;;;;;;;11.96;34.22;95201.91;6815946;28;20226;-75
2021/04/26 01:04:01;;;;;;;4.90;3.20;;;;;;;11.92;34.67;95193.34;6834615;28;20226;-73
2021/04/26 01:07:25;;;;;;;4.30;3.07;;;;;;;11.90;34.47;95197.16;6808764;28;20237;-74
2021/04/26 01:10:47;;;;;;;6.47;2.87;;;;;;;11.84;35.42;95190.59;6817970;28;20218;-75
2021/04/26 01:14:33;;;;;;;5.40;3.07;;;;;;;11.85;35.65;95196.75;6804729;28;20231;-73
2021/04/26 01:18:00;;;;;;;3.83;2.87;;;;;;;11.80;35.91;95201.69;6831447;28;20232;-75
2021/04/26 01:21:44;;;;;;;8.50;3.07;;;;;;;11.72;36.27;95199.69;6830922;28;20648;-75
2021/04/26 01:25:10;;;;;;;5.97;3.37;;;;;;;11.62;36.49;95197.06;6835257;28;20690;-75
2021/04/26 01:28:45;;;;;;;4.63;2.70;;;;;;;11.55;36.59;95193.31;6816093;28;20253;-74
2021/04/26 01:32:22;;;;;;;4.60;3.10;;;;;;;11.46;36.76;95190.69;6818049;28;20221;-75
2021/04/26 01:35:43;;;;;;;5.70;3.27;;;;;;;11.44;37.22;95192.63;6837601;28;20262;-75
2021/04/26 01:39:05;;;;;;;5.40;2.87;;;;;;;11.41;36.80;95193.78;6826403;28;20218;-73
2021/04/26 01:42:25;;;;;;;6.07;2.80;;;;;;;11.42;36.83;95187.44;6841618;28;20238;-75
2021/04/26 01:45:47;;;;;;;3.70;2.77;;;;;;;11.43;36.24;95182.97;6842944;28;20254;-75
2021/04/26 01:49:07;;;;;;;7.57;3.03;;;;;;;11.39;35.41;95177.13;6841653;28;20215;-74
2021/04/26 01:52:28;;;;;;;5.67;3.20;;;;;;;11.33;35.40;95175.00;6822450;28;20357;-75
2021/04/26 01:55:49;;;;;;;4.17;3.30;;;;;;;11.34;35.12;95178.53;6819669;28;20628;-75
2021/04/26 01:59:10;;;;;;;4.40;2.90;;;;;;;11.29;34.28;95167.47;6798439;28;20236;-75
2021/04/26 02:02:30;;;;;;;4.17;2.93;;;;;;;11.25;34.54;95166.94;6825980;28;20221;-75
2021/04/26 02:05:54;;;;;;;4.80;3.20;;;;;;;11.23;34.48;95163.56;6810964;28;20760;-75
2021/04/26 02:09:15;;;;;;;4.17;3.47;;;;;;;11.22;34.55;95159.22;6800684;28;20704;-75
2021/04/26 02:12:37;;;;;;;4.13;2.90;;;;;;;11.12;35.81;95155.75;6844174;28;20226;-74
2021/04/26 02:15:58;;;;;;;6.20;2.97;;;;;;;10.98;34.54;95153.53;6811009;28;20238;-75
2021/04/26 02:19:18;;;;;;;5.33;3.10;;;;;;;10.92;34.35;95156.72;6814751;28;20221;-75
2021/04/26 02:22:39;;;;;;;6.10;3.20;;;;;;;10.90;34.34;95162.22;6831200;28;20214;-75
2021/04/26 02:25:59;;;;;;;7.67;3.30;;;;;;;10.93;34.52;95161.06;6802386;28;20573;-75
2021/04/26 02:29:20;;;;;;;6.10;2.83;;;;;;;10.92;35.08;95162.88;6829680;28;20214;-75
2021/04/26 02:32:53;;;;;;;4.83;2.57;;;;;;;10.81;35.67;95176.34;6801432;28;20384;-74
2021/04/26 02:36:23;;;;;;;6.17;2.97;;;;;;;10.59;36.67;95166.81;6829973;28;20233;-73
2021/04/26 02:39:45;;;;;;;4.93;2.77;;;;;;;10.48;37.18;95163.44;6836797;28;20682;-74
2021/04/26 02:43:06;;;;;;;4.73;2.70;;;;;;;10.43;37.62;95166.50;6808573;28;20229;-75
2021/04/26 02:46:30;;;;;;;3.40;2.43;;;;;;;10.39;37.39;95158.94;6837979;28;20696;-74
2021/04/26 02:49:52;;;;;;;5.33;2.97;;;;;;;10.37;38.18;95164.38;6822741;28;20281;-74
2021/04/26 02:53:15;;;;;;;3.43;3.00;;;;;;;10.32;37.49;95156.00;6829059;28;20221;-75
2021/04/26 02:56:40;;;;;;;4.57;3.13;;;;;;;10.29;37.54;95149.16;6828953;28;20234;-75
2021/04/26 03:00:04;;;;;;;8.27;2.70;;;;;;;10.26;38.05;95151.25;6816053;28;20218;-74
2021/04/26 03:03:26;;;;;;;7.47;3.33;;;;;;;10.21;38.38;95145.53;6801617;28;20217;-75
2021/04/26 03:06:48;;;;;;;3.77;2.63;;;;;;;10.10;37.71;95143.78;6813733;28;20736;-75
2021/04/26 03:10:14;;;;;;;4.00;3.07;;;;;;;10.08;38.54;95145.72;6814075;28;20254;-74
2021/04/26 03:13:36;;;;;;;6.50;2.80;;;;;;;10.09;38.52;95139.44;6826080;28;20221;-75
2021/04/26 03:16:57;;;;;;;3.07;2.53;;;;;;;10.12;38.33;95146.28;6815589;28;20257;-75
2021/04/26 03:20:20;;;;;;;3.83;2.80;;;;;;;10.10;38.42;95141.13;6823982;28;20238;-75
2021/04/26 03:23:44;;;;;;;3.60;2.93;;;;;;;10.10;38.45;95127.88;6829453;28;20215;-74
2021/04/26 03:27:08;;;;;;;5.20;2.90;;;;;;;10.06;38.37;95136.22;6825630;28;20233;-75
2021/04/26 03:30:30;;;;;;;5.77;2.67;;;;;;;9.91;38.51;95131.28;6813056;28;20230;-75
2021/04/26 03:33:51;;;;;;;3.57;2.60;;;;;;;9.87;38.94;95127.22;6828657;28;20222;-75
2021/04/26 03:37:15;;;;;;;4.57;2.90;;;;;;;9.90;38.74;95118.19;6801571;28;20228;-75
2021/04/26 03:40:36;;;;;;;4.60;2.90;;;;;;;9.95;38.80;95121.25;6844933;28;21039;-75
2021/04/26 03:43:58;;;;;;;3.53;2.40;;;;;;;9.96;38.91;95125.56;6812854;28;20214;-75
2021/04/26 03:47:19;;;;;;;4.03;2.80;;;;;;;9.96;39.48;95117.59;6828484;28;20275;-75
2021/04/26 03:50:39;;;;;;;4.73;3.30;;;;;;;9.94;39.10;95110.78;6829533;28;20301;-75
2021/04/26 03:53:59;;;;;;;6.30;3.13;;;;;;;9.82;39.51;95105.56;6812440;28;20218;-75
2021/04/26 03:57:20;;;;;;;6.57;3.43;;;;;;;9.75;39.34;95111.56;6840238;28;20255;-75
2021/04/26 04:00:40;;;;;;;4.57;2.87;;;;;;;9.71;39.54;95108.31;6797115;28;20221;-74
2021/04/26 04:04:01;;;;;;;4.17;3.10;;;;;;;9.70;39.89;95116.44;6829390;28;20240;-74
2021/04/26 04:07:26;;;;;;;3.77;2.40;;;;;;;9.65;40.00;95113.34;6827541;28;20225;-75
2021/04/26 04:10:46;;;;;;;4.33;3.10;;;;;;;9.65;40.21;95111.53;6848946;28;20220;-75
2021/04/26 04:14:07;;;;;;;4.23;2.90;;;;;;;9.66;40.23;95126.44;6828947;28;20224;-75
2021/04/26 04:17:27;;;;;;;4.77;2.90;;;;;;;9.60;40.05;95121.69;6812258;28;20224;-77
2021/04/26 04:20:48;;;;;;;3.37;2.97;;;;;;;9.46;40.09;95122.88;6812141;28;22193;-76
2021/04/26 04:24:09;;;;;;;5.27;3.00;;;;;;;9.36;40.47;95129.09;6836446;28;20220;-73
2021/04/26 04:27:29;;;;;;;5.63;3.30;;;;;;;9.31;41.33;95132.16;6811947;28;20354;-75
2021/04/26 04:30:50;;;;;;;6.13;3.17;;;;;;;9.29;41.14;95139.41;6828637;28;20212;-75
2021/04/26 04:34:10;;;;;;;8.27;3.30;;;;;;;9.25;41.08;95143.28;6828849;28;20220;-75
2021/04/26 04:37:31;;;;;;;5.33;3.10;;;;;;;9.22;41.44;95132.94;6817004;28;20228;-75
2021/04/26 04:40:55;;;;;;;4.07;2.63;;;;;;;9.26;41.41;95133.50;6806946;28;20730;-75
2021/04/26 04:44:16;;;;;;;3.33;2.87;;;;;;;9.28;41.50;95139.53;6792981;28;20211;-72
2021/04/26 04:47:36;;;;;;;4.57;3.30;;;;;;;9.27;41.42;95135.19;6792270;28;20220;-76
2021/04/26 04:50:57;;;;;;;4.00;3.17;;;;;;;9.28;41.25;95131.56;6797577;28;20217;-76
2021/04/26 04:54:17;;;;;;;8.27;3.87;;;;;;;9.29;41.29;95136.75;6809159;28;20232;-76
2021/04/26 04:57:38;;;;;;;6.10;2.83;;;;;;;9.31;41.75;95132.16;6792420;28;20342;-76
2021/04/26 05:00:58;;;;;;;12.97;3.07;;;;;;;9.35;41.59;95135.41;6810458;28;20218;-77
2021/04/26 05:04:19;;;;;;;12.10;10.37;;;;;;;9.36;40.92;95129.94;6809296;28;21281;-76
2021/04/26 05:07:39;;;;;;;7.00;3.57;;;;;;;9.28;41.04;95134.22;6814480;28;20218;-75
2021/04/26 05:11:00;;;;;;;6.40;3.40;;;;;;;9.25;41.62;95134.50;6801070;28;20197;-74
2021/04/26 05:14:20;;;;;;;6.70;3.23;;;;;;;9.26;41.67;95137.00;6822825;28;20715;-74
2021/04/26 05:17:41;;;;;;;5.73;3.37;;;;;;;9.30;42.01;95135.78;6803066;28;20253;-74
2021/04/26 05:21:01;;;;;;;6.60;3.83;;;;;;;9.38;41.61;95135.13;6787706;28;20219;-74
2021/04/26 05:24:22;;;;;;;9.37;3.87;;;;;;;9.46;42.06;95130.00;6799730;28;20277;-74
2021/04/26 05:27:43;;;;;;;5.23;3.40;;;;;;;9.58;42.01;95133.41;6802809;28;20225;-75
2021/04/26 05:31:03;;;;;;;7.97;3.13;;;;;;;9.61;42.02;95135.78;6807321;28;20280;-75
2021/04/26 05:34:24;;;;;;;5.77;3.53;;;;;;;9.63;42.09;95137.34;6808348;28;20232;-74
2021/04/26 05:37:45;;;;;;;5.67;3.30;;;;;;;9.64;42.02;95135.53;6830048;28;20291;-74
2021/04/26 05:41:06;;;;;;;5.83;3.07;;;;;;;9.52;41.95;95139.22;6844006;28;20220;-74
2021/04/26 05:44:26;;;;;;;4.73;3.33;;;;;;;9.45;41.83;95139.78;6832109;28;20285;-73
2021/04/26 05:47:46;;;;;;;4.33;3.00;;;;;;;9.41;42.30;95135.69;6834269;28;20221;-75
2021/04/26 05:51:07;;;;;;;7.60;4.50;;;;;;;9.41;42.42;95148.09;6787928;28;20277;-73
2021/04/26 05:54:27;;;;;;;6.47;3.90;;;;;;;9.48;42.77;95147.44;6818612;28;20226;-75
2021/04/26 05:57:48;;;;;;;7.40;3.70;;;;;;;9.54;42.83;95140.78;6820601;28;20241;-66
2021/04/26 06:01:09;;;;;;;8.63;4.73;;;;;;;9.58;42.82;95147.50;6833875;28;20225;-75
2021/04/26 06:04:29;;;;;;;6.90;3.47;;;;;;;9.55;43.05;95152.22;6821991;28;20579;-75
2021/04/26 06:07:50;;;;;;;10.43;5.87;;;;;;;9.47;42.68;95143.13;6811596;28;20716;-75
2021/04/26 06:11:10;;;;;;;6.50;4.00;;;;;;;9.42;42.60;95142.66;6829238;28;20206;-75
2021/04/26 06:14:30;;;;;;;4.37;3.13;;;;;;;9.56;43.01;95146.78;6831927;28;20233;-75
2021/04/26 06:17:51;;;;;;;6.57;3.30;;;;;;;9.76;42.94;95145.88;6814290;28;20225;-74
2021/04/26 06:21:11;;;;;;;7.43;3.50;;;;;;;9.91;42.56;95152.50;6813255;28;20214;-76
2021/04/26 06:24:33;;;;;;;11.53;6.97;;;;;;;9.99;42.60;95137.72;6842095;28;20210;-74
2021/04/26 06:27:54;;;;;;;5.73;4.03;;;;;;;10.12;42.67;95138.31;6830488;28;20301;-75
2021/04/26 06:31:14;;;;;;;9.93;6.60;;;;;;;10.20;42.77;95144.69;6808820;28;20861;-74
2021/04/26 06:34:35;;;;;;;16.57;9.37;;;;;;;10.33;42.30;95142.59;6827879;28;20707;-75
2021/04/26 06:37:57;;;;;;;13.10;9.53;;;;;;;10.45;42.52;95135.34;6830483;28;20211;-75
2021/04/26 06:41:18;;;;;;;37.10;25.77;;;;;;;10.50;42.37;95127.81;6837453;28;20237;-74
2021/04/26 06:44:38;;;;;;;19.90;16.87;;;;;;;10.61;41.79;95121.53;6829704;28;20207;-74
2021/04/26 06:47:59;;;;;;;15.10;11.17;;;;;;;10.81;42.25;95115.25;6811119;28;20219;-76
2021/04/26 06:51:22;;;;;;;7.30;5.17;;;;;;;10.98;41.33;95114.50;6829122;28;20876;-75
2021/04/26 06:54:42;;;;;;;11.20;5.80;;;;;;;11.21;40.59;95117.69;6821929;28;20740;-75
2021/04/26 06:58:06;;;;;;;5.73;4.90;;;;;;;11.47;40.34;95120.53;6828686;28;20222;-75
2021/04/26 07:01:27;;;;;;;7.80;3.97;;;;;;;11.71;39.03;95104.09;6809784;28;20217;-76
2021/04/26 07:04:47;;;;;;;9.27;4.00;;;;;;;11.86;38.26;95103.50;6820564;28;20213;-73
2021/04/26 07:08:10;;;;;;;7.90;3.53;;;;;;;12.02;37.51;95105.53;6811787;28;20215;-76
2021/04/26 07:11:30;;;;;;;7.73;3.40;;;;;;;12.10;36.86;95108.28;6824799;28;20252;-75
2021/04/26 07:14:51;;;;;;;6.77;3.23;;;;;;;12.20;37.08;95093.09;6823277;28;20226;-75
2021/04/26 07:18:12;;;;;;;3.83;3.30;;;;;;;12.36;36.41;95081.78;6823767;28;20214;-74
2021/04/26 07:21:32;;;;;;;6.10;3.37;;;;;;;12.54;35.83;95090.59;6822904;28;20217;-75
2021/04/26 07:24:53;;;;;;;5.87;4.10;;;;;;;12.72;35.37;95093.28;6856672;28;20672;-74
2021/04/26 07:28:14;;;;;;;6.17;3.73;;;;;;;13.00;35.20;95086.84;6839019;28;20673;-77
2021/04/26 07:31:35;;;;;;;9.63;3.60;;;;;;;13.38;34.93;95087.47;6831384;28;20218;-75
2021/04/26 07:34:55;;;;;;;6.93;3.80;;;;;;;13.75;33.92;95091.50;6855686;28;20225;-75
2021/04/26 07:38:15;;;;;;;8.30;3.60;;;;;;;14.03;33.78;95089.47;6839771;28;20277;-75
2021/04/26 07:41:39;;;;;;;4.40;3.43;;;;;;;14.08;33.79;95089.81;6840021;28;20210;-76
2021/04/26 07:44:59;;;;;;;4.43;3.20;;;;;;;14.22;33.44;95100.88;6837648;28;20232;-75
2021/04/26 07:48:20;;;;;;;7.77;3.67;;;;;;;14.51;33.08;95109.34;6850130;28;20555;-76
2021/04/26 07:51:40;;;;;;;5.17;3.33;;;;;;;14.90;33.10;95102.38;6822423;28;20213;-75
2021/04/26 07:55:01;;;;;;;5.53;3.40;;;;;;;15.31;32.32;95110.41;6825364;28;20218;-75
2021/04/26 07:58:21;;;;;;;7.43;3.50;;;;;;;15.59;31.89;95114.41;6837614;28;20214;-77
2021/04/26 08:01:42;;;;;;;5.07;3.73;;;;;;;15.92;31.10;95103.63;6840937;28;20301;-75
2021/04/26 08:05:02;;;;;;;7.43;3.90;;;;;;;16.14;30.92;95092.19;6820859;28;20572;-76
2021/04/26 08:08:23;;;;;;;7.47;3.30;;;;;;;16.25;30.49;95089.09;6839844;28;20337;-76
2021/04/26 08:11:46;;;;;;;13.67;4.10;;;;;;;16.45;30.01;95081.47;6828594;28;20223;-76
2021/04/26 08:15:09;;;;;;;8.53;3.97;;;;;;;16.64;29.81;95086.44;6822867;28;20306;-76
2021/04/26 08:18:29;;;;;;;5.80;3.83;;;;;;;16.91;29.65;95085.06;6820879;28;20600;-75
2021/04/26 08:21:50;;;;;;;6.37;3.40;;;;;;;16.99;29.12;95080.50;6821789;28;20718;-76
2021/04/26 08:25:11;;;;;;;6.93;3.80;;;;;;;17.28;28.74;95079.75;6837078;28;20696;-76
2021/04/26 08:28:35;;;;;;;4.93;3.50;;;;;;;17.55;28.66;95086.38;6853333;28;20734;-75
2021/04/26 08:31:56;;;;;;;6.20;3.80;;;;;;;18.04;28.85;95075.97;6835328;28;20601;-76
2021/04/26 08:35:16;;;;;;;3.90;3.40;;;;;;;18.53;27.62;95073.47;6836259;28;20706;-76
2021/04/26 08:38:37;;;;;;;4.83;3.37;;;;;;;18.90;27.16;95064.41;6821103;28;20213;-76
2021/04/26 08:42:00;;;;;;;7.97;4.20;;;;;;;19.48;27.37;95065.16;6822794;28;20218;-67
2021/04/26 08:45:23;;;;;;;6.80;4.30;;;;;;;19.88;26.76;95060.88;6843958;28;20213;-76
2021/04/26 08:48:43;;;;;;;6.20;3.70;;;;;;;20.12;25.34;95055.84;6837319;28;20317;-76
2021/04/26 08:52:06;;;;;;;6.13;4.13;;;;;;;20.71;25.53;95055.31;6854320;28;20214;-76
2021/04/26 08:55:27;;;;;;;6.50;4.30;;;;;;;21.34;24.47;95047.75;6833018;28;20316;-77
2021/04/26 08:58:48;;;;;;;8.37;4.40;;;;;;;22.13;23.89;95045.81;6837074;28;20217;-77
2021/04/26 09:02:09;;;;;;;7.13;4.47;;;;;;;22.81;22.86;95043.53;6820771;28;20704;-76
2021/04/26 09:05:40;;;;;;;6.82;4.05;;;;;;;23.14;22.09;95053.34;6836755;28;20237;-76
2021/04/26 09:09:01;;;;;;;6.70;4.43;;;;;;;22.51;22.65;95047.78;6837027;28;20236;-76
2021/04/26 09:12:21;;;;;;;6.60;4.20;;;;;;;21.63;22.75;95049.19;6837088;28;20217;-77
2021/04/26 09:15:56;;;;;;;7.93;4.13;;;;;;;21.73;23.31;95060.41;6837806;28;20225;-78
2021/04/26 09:19:28;;;;;;;5.88;4.43;;;;;;;22.19;23.11;95044.16;6822041;28;20213;-79
2021/04/26 09:22:49;;;;;;;9.20;4.28;;;;;;;22.59;22.86;95042.97;6834639;28;20218;-78
2021/04/26 09:26:26;;;;;;;7.30;4.88;;;;;;;23.15;22.43;95036.00;6860407;28;20357;-79
2021/04/26 09:29:46;;;;;;;7.05;4.70;;;;;;;23.82;21.77;95025.28;6824646;28;20209;-79
2021/04/26 09:33:39;;;;;;;5.82;4.18;;;;;;;23.80;21.20;95027.38;6857674;28;20312;-78
2021/04/26 09:37:09;;;;;;;6.40;3.85;;;;;;;23.16;20.99;95013.31;6854642;28;20225;-78
2021/04/26 09:40:30;;;;;;;8.48;5.20;;;;;;;22.27;21.85;95022.28;6823137;28;20222;-77
2021/04/26 09:44:02;;;;;;;6.43;4.82;;;;;;;21.92;22.98;95024.44;6840078;28;20299;-79
2021/04/26 09:47:23;;;;;;;7.23;4.43;;;;;;;21.61;23.29;95027.81;6856041;28;20276;-78
2021/04/26 09:50:53;;;;;;;5.57;4.60;;;;;;;21.48;23.17;95011.59;6855960;28;20222;-77
2021/04/26 09:54:14;;;;;;;7.70;4.53;;;;;;;21.57;23.35;95023.88;6837822;28;20224;-77
2021/04/26 09:57:37;;;;;;;8.33;5.00;;;;;;;21.90;23.06;95023.81;6810181;28;20226;-78
2021/04/26 10:00:57;;;;;;;11.43;5.67;;;;;;;22.80;22.67;95006.66;6833136;28;20257;-77
2021/04/26 10:04:18;;;;;;;9.73;5.40;;;;;;;24.11;22.22;95009.34;6799093;28;20289;-77
2021/04/26 10:07:38;;;;;;;9.70;5.50;;;;;;;25.19;21.75;95004.88;6827211;28;20272;-78
2021/04/26 10:11:01;;;;;;;13.00;5.07;;;;;;;26.40;20.87;95002.38;6835046;28;20273;-78
2021/04/26 10:14:24;;;;;;;9.20;5.35;;;;;;;27.55;19.43;95001.34;6815005;28;20221;-78
2021/04/26 10:17:46;;;;;;;8.93;5.05;;;;;;;28.53;19.01;95004.19;6840770;28;20226;-77
2021/04/26 10:21:18;;;;;;;6.88;5.30;;;;;;;28.91;17.85;95002.50;6815142;28;20290;-77
2021/04/26 10:24:55;;;;;;;9.00;5.00;;;;;;;28.81;18.13;95007.84;6835665;28;20221;-77
2021/04/26 10:28:38;;;;;;;7.70;5.57;;;;;;;28.86;17.98;94995.06;6827553;28;20683;-79
2021/04/26 10:31:59;;;;;;;11.52;5.78;;;;;;;28.62;18.33;94996.38;6808796;28;20306;-78
2021/04/26 10:35:19;;;;;;;8.07;5.95;;;;;;;28.75;17.23;94990.56;6824152;28;20234;-78
2021/04/26 10:38:44;;;;;;;13.63;6.38;;;;;;;28.20;17.59;94978.88;6832265;28;20229;-77
2021/04/26 10:42:07;;;;;;;11.13;5.32;;;;;;;26.64;18.78;94981.34;6836252;28;20698;-77
2021/04/26 10:45:31;;;;;;;7.38;5.28;;;;;;;25.75;20.15;94995.41;6798505;28;20287;-78
2021/04/26 10:49:03;;;;;;;11.18;6.00;;;;;;;24.57;21.08;94981.69;6818613;28;20230;-77
2021/04/26 10:52:29;;;;;;;14.75;5.47;;;;;;;24.28;21.58;94975.16;6832892;28;20225;-77
2021/04/26 10:55:51;;;;;;;10.05;5.88;;;;;;;23.60;22.12;94972.53;6820933;28;20218;-77
2021/04/26 10:59:17;;;;;;;11.73;6.13;;;;;;;23.03;23.26;94970.91;6815538;28;20234;-79
2021/04/26 11:02:37;;;;;;;11.13;5.60;;;;;;;22.98;23.30;94970.75;6825826;28;20221;-76
2021/04/26 11:06:08;;;;;;;8.48;5.85;;;;;;;22.55;23.49;94979.50;6804356;28;20223;-77
2021/04/26 11:09:38;;;;;;;9.98;5.72;;;;;;;21.97;24.49;94953.53;6808538;28;20225;-77
2021/04/26 11:13:30;;;;;;;7.77;5.73;;;;;;;21.62;24.25;94940.31;6824750;28;20209;-77
2021/04/26 11:17:02;;;;;;;8.70;6.53;;;;;;;21.26;24.43;94948.06;6856885;28;20281;-77
2021/04/26 11:20:25;;;;;;;9.17;5.83;;;;;;;20.66;25.22;94944.47;6840968;28;20285;-77
2021/04/26 11:23:46;;;;;;;10.63;5.63;;;;;;;20.44;25.70;94938.41;6839848;28;20209;-77
2021/04/26 11:27:15;;;;;;;8.20;6.80;;;;;;;20.22;25.39;94939.53;6839685;28;20265;-76
2021/04/26 11:30:37;;;;;;;11.07;6.73;;;;;;;19.95;26.45;94933.25;6857996;28;20233;-77
2021/04/26 11:33:57;;;;;;;11.63;6.60;;;;;;;19.80;25.79;94919.09;6840100;28;20341;-77
2021/04/26 11:37:33;;;;;;;9.83;6.43;;;;;;;19.79;26.39;94916.59;6823595;28;20218;-77
2021/04/26 11:40:54;;;;;;;9.67;6.03;;;;;;;19.79;27.12;94905.81;6830540;28;20261;-76
2021/04/26 11:44:14;;;;;;;7.97;5.80;;;;;;;19.79;27.59;94898.56;6839335;28;20592;-77
2021/04/26 11:47:35;;;;;;;10.47;6.63;;;;;;;19.67;25.96;94894.75;6837570;28;20551;-76
2021/04/26 11:50:55;;;;;;;7.47;6.17;;;;;;;19.41;26.36;94890.06;6797261;28;20692;-77
2021/04/26 11:54:29;;;;;;;11.07;6.30;;;;;;;19.52;26.43;94888.69;6841379;28;20211;-77
2021/04/26 11:57:57;;;;;;;10.90;6.20;;;;;;;19.55;26.85;94875.66;6793131;28;20240;-76
2021/04/26 12:01:17;;;;;;;8.97;6.33;;;;;;;19.57;27.47;94880.84;6816466;28;20214;-77
2021/04/26 12:04:42;;;;;;;8.50;6.30;;;;;;;19.50;26.78;94872.75;6815611;28;20222;-76
2021/04/26 12:08:03;;;;;;;12.93;5.90;;;;;;;19.57;27.59;94861.97;6823612;28;20221;-77
2021/04/26 12:11:24;;;;;;;8.93;6.37;;;;;;;19.49;26.76;94871.06;6803418;28;20316;-77
2021/04/26 12:14:45;;;;;;;7.20;6.13;;;;;;;19.27;26.46;94859.53;6834913;28;20249;-76
2021/04/26 12:18:08;;;;;;;8.23;6.27;;;;;;;19.08;26.95;94854.88;6839208;28;20281;-77
2021/04/26 12:21:29;;;;;;;12.30;6.33;;;;;;;19.10;27.42;94842.06;6799493;28;20302;-77
2021/04/26 12:24:51;;;;;;;11.03;6.47;;;;;;;19.33;28.94;94846.31;6804874;28;20213;-77
2021/04/26 12:28:13;;;;;;;11.67;6.77;;;;;;;19.26;28.03;94843.59;6826910;28;20214;-76
2021/04/26 12:31:34;;;;;;;10.87;7.17;;;;;;;19.17;27.33;94844.78;6829666;28;20217;-76
2021/04/26 12:34:56;;;;;;;11.90;6.30;;;;;;;19.03;28.46;94832.28;6815615;28;20596;-76
2021/04/26 12:38:23;;;;;;;9.33;7.10;;;;;;;19.00;28.10;94822.75;6811206;28;20685;-77
2021/04/26 12:41:43;;;;;;;8.27;6.37;;;;;;;18.90;28.53;94814.19;6811085;28;20214;-77
2021/04/26 12:45:10;;;;;;;10.60;6.57;;;;;;;18.87;27.83;94819.97;6811206;28;20215;-77
2021/04/26 12:48:32;;;;;;;10.17;7.53;;;;;;;18.77;28.79;94806.03;6839548;28;20221;-76
2021/04/26 12:51:52;;;;;;;9.83;7.00;;;;;;;18.77;28.95;94804.16;6810852;28;20274;-77
2021/04/26 12:55:13;;;;;;;8.23;6.97;;;;;;;18.74;28.07;94791.13;6827472;28;20237;-75
2021/04/26 12:58:39;;;;;;;9.00;6.70;;;;;;;18.78;28.07;94797.75;6809381;28;20229;-76
2021/04/26 13:02:01;;;;;;;9.27;6.60;;;;;;;18.70;27.93;94797.94;6830446;28;20224;-77
2021/04/26 13:05:26;;;;;;;14.40;6.73;;;;;;;18.72;28.10;94789.66;6827215;28;20291;-77
2021/04/26 13:08:48;;;;;;;11.13;6.50;;;;;;;18.85;28.23;94792.44;6829763;28;20210;-76
2021/04/26 13:12:11;;;;;;;10.93;6.60;;;;;;;18.93;27.88;94776.13;6810585;28;20291;-75
2021/04/26 13:15:32;;;;;;;14.00;7.07;;;;;;;19.11;28.83;94771.03;6818560;28;20632;-77
2021/04/26 13:19:00;;;;;;;9.27;7.37;;;;;;;19.35;28.97;94758.94;6825398;28;20223;-77
2021/04/26 13:22:28;;;;;;;12.00;7.17;;;;;;;19.39;27.50;94752.09;6809655;29;20215;-77
2021/04/26 13:25:49;;;;;;;10.03;5.83;;;;;;;19.45;27.50;94745.97;6797048;28;20241;-76
2021/04/26 13:29:14;;;;;;;9.37;6.00;;;;;;;19.39;26.68;94737.81;6821706;28;20217;-77
2021/04/26 13:32:34;;;;;;;9.07;5.33;;;;;;;19.37;26.97;94735.31;6822802;28;20226;-77
2021/04/26 13:35:56;;;;;;;7.97;4.90;;;;;;;19.27;26.88;94730.31;6832107;28;20281;-76
2021/04/26 13:39:17;;;;;;;7.53;5.90;;;;;;;19.23;26.53;94739.00;6836158;28;20213;-76
2021/04/26 13:42:38;;;;;;;8.77;5.87;;;;;;;19.11;27.07;94727.97;6836608;28;20211;-77
2021/04/26 13:46:01;;;;;;;8.37;6.33;;;;;;;19.09;27.47;94718.44;6822376;28;20368;-77
2021/04/26 13:49:21;;;;;;;8.87;6.37;;;;;;;19.20;27.98;94707.94;6810467;29;20273;-76
2021/04/26 13:52:45;;;;;;;9.53;6.63;;;;;;;19.39;28.25;94711.72;6815480;28;20229;-76
2021/04/26 13:56:07;;;;;;;8.83;6.17;;;;;;;19.37;26.86;94705.69;6826077;28;20676;-76
2021/04/26 13:59:29;;;;;;;12.63;6.13;;;;;;;19.18;26.75;94695.72;6817437;28;20284;-77
2021/04/26 14:02:50;;;;;;;9.53;7.03;;;;;;;19.10;27.56;94698.59;6809373;28;20292;-77
2021/04/26 14:06:12;;;;;;;11.07;6.93;;;;;;;19.12;27.89;94696.50;6809861;28;20225;-68
2021/04/26 14:09:34;;;;;;;12.33;6.53;;;;;;;19.16;27.97;94703.97;6813465;28;20212;-77
2021/04/26 14:12:54;;;;;;;10.43;6.10;;;;;;;19.16;27.43;94701.28;6814943;28;20304;-77
2021/04/26 14:16:15;;;;;;;9.73;6.03;;;;;;;19.10;27.36;94682.44;6814744;28;20241;-77
2021/04/26 14:19:35;;;;;;;10.77;8.10;;;;;;;19.09;28.44;94678.91;6830981;28;20213;-76
2021/04/26 14:22:56;;;;;;;13.07;6.93;;;;;;;19.22;29.18;94680.81;6809959;28;20612;-77
2021/04/26 14:26:16;;;;;;;12.00;7.17;;;;;;;19.20;28.21;94680.19;6832494;28;20221;-77
2021/04/26 14:29:37;;;;;;;14.77;7.30;;;;;;;19.13;28.32;94668.56;6815083;28;20219;-77
2021/04/26 14:32:58;;;;;;;7.90;6.07;;;;;;;19.16;28.14;94660.91;6813924;28;20224;-77
2021/04/26 14:36:21;;;;;;;9.57;5.97;;;;;;;19.14;27.85;94662.16;6825528;28;20255;-76
2021/04/26 14:39:42;;;;;;;7.80;5.60;;;;;;;19.17;27.76;94667.13;6814621;28;20221;-76
2021/04/26 14:43:03;;;;;;;8.70;5.60;;;;;;;19.13;27.28;94650.56;6814710;28;20241;-77
2021/04/26 14:46:23;;;;;;;11.40;6.20;;;;;;;19.14;27.56;94648.72;6798136;28;20221;-77
2021/04/26 14:49:44;;;;;;;10.20;6.20;;;;;;;19.17;26.85;94642.91;6812475;28;20234;-77
2021/04/26 14:53:04;;;;;;;13.23;6.70;;;;;;;19.04;26.77;94665.25;6829215;28;20214;-77
2021/04/26 14:56:25;;;;;;;9.30;6.40;;;;;;;18.89;26.76;94632.28;6812124;28;20232;-76
2021/04/26 14:59:46;;;;;;;6.37;5.60;;;;;;;18.82;26.85;94634.09;6824122;28;20313;-77
2021/04/26 15:03:09;;;;;;;8.60;5.83;;;;;;;18.74;26.56;94623.53;6840263;28;20614;-77
2021/04/26 15:06:29;;;;;;;8.63;5.83;;;;;;;18.68;26.89;94624.34;6857509;28;20316;-76
2021/04/26 15:09:53;;;;;;;6.97;5.73;;;;;;;18.66;26.65;94627.22;6856005;28;20254;-76
2021/04/26 15:13:13;;;;;;;7.07;5.73;;;;;;;18.63;26.50;94619.56;6856629;28;20273;-74
2021/04/26 15:16:34;;;;;;;11.03;5.60;;;;;;;18.62;26.54;94612.50;6823734;28;20235;-76
2021/04/26 15:19:54;;;;;;;9.30;5.83;;;;;;;18.64;26.69;94610.47;6857384;28;20260;-77
2021/04/26 15:23:15;;;;;;;9.60;4.70;;;;;;;18.67;26.77;94606.53;6838969;28;20212;-76
2021/04/26 15:26:36;;;;;;;7.33;5.40;;;;;;;18.60;25.81;94616.44;6857219;28;20274;-77
2021/04/26 15:29:56;;;;;;;7.40;5.40;;;;;;;18.53;25.53;94607.47;6823783;28;20270;-76
2021/04/26 15:33:17;;;;;;;8.13;5.80;;;;;;;18.54;25.75;94599.25;6847023;28;20245;-76
2021/04/26 15:36:40;;;;;;;6.27;5.27;;;;;;;18.58;26.12;94603.19;6839839;28;20581;-77
2021/04/26 15:40:00;;;;;;;9.33;6.27;;;;;;;18.58;26.13;94591.63;6839283;28;20303;-77
2021/04/26 15:43:21;;;;;;;7.30;5.10;;;;;;;18.60;25.91;94606.53;6821576;28;20215;-77
2021/04/26 15:46:42;;;;;;;9.33;4.60;;;;;;;18.59;25.59;94591.41;6823515;28;20212;-76
2021/04/26 15:50:03;;;;;;;7.20;4.97;;;;;;;18.53;25.71;94588.66;6839319;28;20296;-76
2021/04/26 15:53:23;;;;;;;5.77;4.53;;;;;;;18.51;25.48;94582.69;6838412;28;20581;-77